Time;durP1;ratioP1;P1;durP2;ratioP2;P2;SDS_P1;SDS_P2;PMS_P1;PMS_P2;Temp;Humidity;BMP_temperature;BMP_pressure;BME280_temperature;BME280_humidity;BME280_pressure;Samples;Min_cycle;Max_cycle;Signal;HPM_P1;HPM_P2
2022/04/28 00:00:41;;;;;;;16.63;7.23;;;11.90;99.90;;;;;;6271578;23;20419;-50
2022/04/28 00:03:09;;;;;;;12.43;7.77;;;11.90;99.90;;;;;;6270880;23;20435;-48
2022/04/28 00:05:36;;;;;;;14.43;7.50;;;11.80;99.90;;;;;;6270564;23;20431;-52
2022/04/28 00:08:03;;;;;;;17.87;8.30;;;11.70;99.90;;;;;;6270137;23;20383;-43
2022/04/28 00:10:30;;;;;;;16.20;7.43;;;11.70;99.90;;;;;;6271448;23;20483;-50
2022/04/28 00:13:00;;;;;;;11.50;7.37;;;11.70;99.90;;;;;;6270496;23;20426;-50
2022/04/28 00:15:29;;;;;;;14.00;7.03;;;11.70;99.90;;;;;;6270541;23;20403;-46
2022/04/28 00:18:00;;;;;;;13.40;7.33;;;11.70;99.90;;;;;;6270822;23;20453;-49
2022/04/28 00:20:29;;;;;;;14.33;8.00;;;11.70;99.90;;;;;;6270341;23;20397;-48
2022/04/28 00:22:55;;;;;;;13.53;8.13;;;11.70;99.90;;;;;;6270271;23;20776;-53
2022/04/28 00:25:23;;;;;;;10.33;6.87;;;11.70;99.90;;;;;;6270374;23;20434;-55
2022/04/28 00:27:50;;;;;;;10.33;6.53;;;11.70;99.90;;;;;;6270773;23;20427;-52
2022/04/28 00:30:17;;;;;;;14.73;7.97;;;11.70;99.90;;;;;;6270875;23;20390;-52
2022/04/28 00:32:43;;;;;;;15.80;9.33;;;11.70;99.90;;;;;;6270363;23;20433;-54
2022/04/28 00:35:12;;;;;;;14.23;7.30;;;11.70;99.90;;;;;;6270383;23;20414;-49
2022/04/28 00:37:38;;;;;;;12.30;7.60;;;11.70;99.90;;;;;;6270120;23;20470;-53
2022/04/28 00:40:08;;;;;;;17.67;8.03;;;11.70;99.90;;;;;;6269859;23;20407;-49
2022/04/28 00:42:37;;;;;;;13.00;7.37;;;11.70;99.90;;;;;;6270952;23;20460;-55
2022/04/28 00:45:04;;;;;;;14.37;8.30;;;11.70;99.90;;;;;;6270238;23;20431;-52
2022/04/28 00:53:01;;;;;;;15.13;8.10;;;11.60;99.90;;;;;;6270687;23;20410;-54
2022/04/28 00:55:29;;;;;;;12.37;8.70;;;11.50;99.90;;;;;;6270791;23;20814;-51
2022/04/28 00:57:59;;;;;;;15.50;8.70;;;11.40;99.90;;;;;;6270638;22;20407;-55
2022/04/28 01:00:27;;;;;;;15.17;7.60;;;11.40;99.90;;;;;;6270640;23;20399;-45
2022/04/28 01:02:54;;;;;;;13.73;8.53;;;11.40;99.90;;;;;;6270402;23;20453;-49
2022/04/28 01:05:22;;;;;;;16.30;8.53;;;11.30;99.90;;;;;;6269777;23;20406;-55
2022/04/28 01:07:49;;;;;;;15.03;9.93;;;11.40;99.90;;;;;;6270328;23;20426;-52
2022/04/28 01:10:16;;;;;;;13.83;7.63;;;11.40;99.90;;;;;;6269995;23;20426;-49
2022/04/28 01:12:43;;;;;;;14.80;9.87;;;11.30;99.90;;;;;;6270557;23;20429;-52
2022/04/28 01:15:11;;;;;;;13.30;7.80;;;11.40;99.90;;;;;;6269642;23;20438;-51
2022/04/28 01:17:39;;;;;;;10.50;7.00;;;11.30;99.90;;;;;;6269860;23;20414;-51
2022/04/28 01:20:07;;;;;;;20.10;8.77;;;11.40;99.90;;;;;;6269653;23;20396;-51
2022/04/28 01:22:36;;;;;;;14.07;7.80;;;11.40;99.90;;;;;;6268801;23;20442;-52
2022/04/28 01:25:06;;;;;;;9.40;6.27;;;11.30;99.90;;;;;;6269673;23;20458;-50
2022/04/28 01:27:35;;;;;;;10.83;7.10;;;11.30;99.90;;;;;;6270245;23;20404;-49
2022/04/28 01:30:01;;;;;;;14.97;7.30;;;11.20;99.90;;;;;;6270094;23;20433;-52
2022/04/28 01:32:31;;;;;;;19.00;8.03;;;11.20;99.90;;;;;;6269504;23;20405;-44
2022/04/28 01:34:57;;;;;;;12.07;6.60;;;11.20;99.90;;;;;;6269347;23;20461;-55
2022/04/28 01:37:25;;;;;;;12.57;7.60;;;11.10;99.90;;;;;;6269638;23;20383;-52
2022/04/28 01:39:53;;;;;;;21.03;11.63;;;11.10;99.90;;;;;;6269338;23;20433;-44
2022/04/28 01:42:23;;;;;;;11.70;7.43;;;11.10;99.90;;;;;;6270025;23;20427;-54
2022/04/28 01:44:50;;;;;;;11.83;7.00;;;11.00;99.90;;;;;;6270505;23;20402;-50
2022/04/28 01:47:17;;;;;;;13.73;7.77;;;11.00;99.90;;;;;;6269739;23;20394;-51
2022/04/28 01:49:44;;;;;;;12.00;7.83;;;11.00;99.90;;;;;;6270511;23;20426;-55
2022/04/28 01:54:59;;;;;;;9.17;6.00;;;11.00;99.90;;;;;;6270625;23;20366;-50
2022/04/28 01:57:27;;;;;;;10.70;7.10;;;11.00;99.90;;;;;;6269642;23;20469;-59
2022/04/28 01:59:53;;;;;;;11.43;6.83;;;10.90;99.90;;;;;;6270164;23;20419;-45
2022/04/28 02:02:21;;;;;;;10.57;5.53;;;10.90;99.90;;;;;;6270213;23;20477;-55
2022/04/28 02:04:47;;;;;;;9.83;6.40;;;10.90;99.90;;;;;;6270078;23;20387;-54
2022/04/28 02:07:16;;;;;;;10.67;6.97;;;10.90;99.90;;;;;;6270595;23;20403;-60
2022/04/28 02:09:44;;;;;;;8.40;5.93;;;10.90;99.90;;;;;;6270157;23;20383;-52
2022/04/28 02:12:14;;;;;;;12.93;6.30;;;10.90;99.90;;;;;;6269876;23;20410;-53
2022/04/28 02:14:41;;;;;;;14.97;7.10;;;10.80;99.90;;;;;;6269806;23;20423;-54
2022/04/28 02:17:09;;;;;;;17.20;7.10;;;10.80;99.90;;;;;;6270000;23;20415;-50
2022/04/28 02:19:36;;;;;;;10.97;6.27;;;10.80;99.90;;;;;;6269887;23;20433;-51
2022/04/28 02:22:03;;;;;;;6.90;5.13;;;10.80;99.90;;;;;;6269379;23;20470;-51
2022/04/28 02:24:30;;;;;;;11.50;6.40;;;10.80;99.90;;;;;;6269571;23;20423;-50
2022/04/28 02:26:57;;;;;;;15.67;6.53;;;10.80;99.90;;;;;;6269700;23;20456;-50
2022/04/28 02:29:25;;;;;;;11.13;6.90;;;10.70;99.90;;;;;;6269027;23;20409;-51
2022/04/28 02:31:52;;;;;;;9.17;6.20;;;10.70;99.90;;;;;;6270378;23;20486;-51
2022/04/28 02:34:18;;;;;;;8.57;6.10;;;10.60;99.90;;;;;;6271302;23;20440;-51
2022/04/28 02:36:45;;;;;;;9.37;5.83;;;10.60;99.90;;;;;;6271427;23;20419;-52
2022/04/28 02:39:12;;;;;;;9.37;5.43;;;10.60;99.90;;;;;;6271086;23;20417;-52
2022/04/28 02:41:39;;;;;;;8.80;6.07;;;10.60;99.90;;;;;;6271151;23;20425;-52
2022/04/28 02:44:06;;;;;;;10.90;7.43;;;10.60;99.90;;;;;;6270610;23;20403;-48
2022/04/28 02:46:34;;;;;;;12.90;8.10;;;10.60;99.90;;;;;;6270621;23;20506;-52
2022/04/28 02:49:01;;;;;;;11.27;6.37;;;10.60;99.90;;;;;;6270837;23;20426;-53
2022/04/28 02:51:31;;;;;;;11.60;6.67;;;10.50;99.90;;;;;;6271457;23;20403;-56
2022/04/28 02:53:58;;;;;;;10.00;6.60;;;10.50;99.90;;;;;;6271135;23;20408;-47
2022/04/28 02:56:25;;;;;;;10.17;6.30;;;10.40;99.90;;;;;;6271370;23;20408;-58
2022/04/28 02:58:54;;;;;;;10.03;6.00;;;10.30;99.90;;;;;;6270894;23;20434;-55
2022/04/28 03:01:21;;;;;;;10.03;6.30;;;10.40;99.90;;;;;;6271072;23;20395;-49
2022/04/28 03:03:50;;;;;;;9.20;6.10;;;10.30;99.90;;;;;;6270774;23;20426;-52
2022/04/28 03:11:47;;;;;;;8.97;6.27;;;10.20;99.90;;;;;;6270847;23;20390;-53
2022/04/28 03:14:14;;;;;;;11.43;6.27;;;10.20;99.90;;;;;;6270967;23;20411;-51
2022/04/28 03:16:41;;;;;;;21.97;6.53;;;10.10;99.90;;;;;;6271210;23;20398;-46
2022/04/28 03:19:09;;;;;;;8.07;5.60;;;10.10;99.90;;;;;;6270757;23;20432;-55
2022/04/28 03:21:37;;;;;;;8.53;6.20;;;10.10;99.90;;;;;;6270794;23;20407;-55
2022/04/28 03:24:04;;;;;;;9.23;6.90;;;10.10;99.90;;;;;;6270820;23;20469;-54
2022/04/28 03:26:33;;;;;;;8.67;5.40;;;10.00;99.90;;;;;;6270808;23;20453;-52
2022/04/28 03:29:00;;;;;;;7.73;5.50;;;10.00;99.90;;;;;;6270278;23;20478;-53
2022/04/28 03:31:27;;;;;;;9.50;5.57;;;10.00;99.90;;;;;;6270016;23;20469;-51
2022/04/28 03:33:53;;;;;;;10.30;5.80;;;10.00;99.90;;;;;;6270143;23;20403;-48
2022/04/28 03:39:14;;;;;;;9.47;7.13;;;9.90;99.90;;;;;;6216186;23;20425;-53
2022/04/28 03:41:41;;;;;;;11.40;6.23;;;9.80;99.90;;;;;;6270991;23;20399;-50
2022/04/28 03:44:10;;;;;;;11.23;7.03;;;9.80;99.90;;;;;;6269846;23;20422;-48
2022/04/28 03:46:37;;;;;;;10.80;6.53;;;9.80;99.90;;;;;;6270610;23;20442;-51
2022/04/28 03:49:04;;;;;;;7.97;5.90;;;9.80;99.90;;;;;;6270621;23;20458;-53
2022/04/28 03:51:32;;;;;;;10.73;6.10;;;9.80;99.90;;;;;;6270828;23;20429;-54
2022/04/28 03:54:00;;;;;;;15.20;6.17;;;9.80;99.90;;;;;;6271342;23;20425;-43
2022/04/28 03:56:29;;;;;;;11.40;5.60;;;9.80;99.90;;;;;;6271520;23;20399;-52
2022/04/28 03:58:55;;;;;;;11.43;5.10;;;9.80;99.90;;;;;;6271794;22;20470;-58
2022/04/28 04:01:25;;;;;;;7.33;5.80;;;9.80;99.90;;;;;;6272088;23;20384;-54
2022/04/28 04:03:52;;;;;;;9.57;6.17;;;9.80;99.90;;;;;;6271914;23;20742;-50
2022/04/28 04:06:19;;;;;;;6.57;5.43;;;9.80;99.90;;;;;;6272285;23;20473;-52
2022/04/28 04:08:48;;;;;;;9.27;5.37;;;9.80;99.90;;;;;;6271717;23;20407;-54
2022/04/28 04:11:15;;;;;;;12.90;6.33;;;9.80;99.90;;;;;;6271422;23;20447;-53
2022/04/28 04:13:42;;;;;;;9.60;6.00;;;9.80;99.90;;;;;;6272161;23;20422;-49
2022/04/28 04:16:12;;;;;;;10.07;6.23;;;9.70;99.90;;;;;;6270651;23;20494;-51
2022/04/28 04:18:39;;;;;;;9.80;5.07;;;9.70;99.90;;;;;;6270807;23;20411;-54
2022/04/28 04:21:08;;;;;;;8.40;4.67;;;9.80;99.90;;;;;;6270494;23;20471;-54
2022/04/28 04:23:34;;;;;;;10.43;4.93;;;9.70;99.90;;;;;;6270010;23;20430;-50
2022/04/28 04:26:09;;;;;;;10.90;5.70;;;9.70;99.90;;;;;;6269960;23;20403;-50
2022/04/28 04:28:36;;;;;;;7.60;5.80;;;9.70;99.90;;;;;;6270014;23;20394;-54
2022/04/28 04:33:47;;;;;;;8.27;5.37;;;9.80;99.90;;;;;;6270779;23;20410;-52
2022/04/28 04:36:13;;;;;;;11.50;5.00;;;9.80;99.90;;;;;;6270263;23;20411;-54
2022/04/28 04:38:43;;;;;;;10.53;5.57;;;9.80;99.90;;;;;;6270387;23;20423;-52
2022/04/28 04:41:11;;;;;;;11.83;6.20;;;9.80;99.90;;;;;;6270812;23;20445;-52
2022/04/28 04:43:38;;;;;;;15.10;5.67;;;9.80;99.90;;;;;;6270541;23;20437;-53
2022/04/28 04:46:05;;;;;;;9.97;4.93;;;9.90;99.90;;;;;;6270098;23;20434;-52
2022/04/28 04:48:32;;;;;;;6.80;5.10;;;9.80;99.90;;;;;;6269757;23;20399;-45
2022/04/28 04:50:59;;;;;;;11.07;4.60;;;9.80;99.90;;;;;;6269483;23;20414;-52
2022/04/28 04:53:25;;;;;;;9.23;5.00;;;9.90;99.90;;;;;;6269675;23;20399;-55
2022/04/28 04:55:52;;;;;;;8.07;5.57;;;10.00;99.90;;;;;;6269512;23;20454;-49
2022/04/28 04:58:20;;;;;;;11.03;6.47;;;10.00;99.90;;;;;;6269492;22;20466;-50
2022/04/28 05:00:49;;;;;;;10.30;6.33;;;9.90;99.90;;;;;;6270058;23;20473;-54
2022/04/28 05:03:16;;;;;;;9.80;6.27;;;10.00;99.90;;;;;;6269565;23;20439;-52
2022/04/28 05:05:44;;;;;;;9.20;6.20;;;10.10;99.90;;;;;;6269507;23;20423;-51
2022/04/28 05:08:12;;;;;;;9.77;5.27;;;10.10;99.90;;;;;;6270127;23;20403;-49
2022/04/28 05:10:38;;;;;;;8.70;5.40;;;10.10;99.90;;;;;;6269366;23;20407;-53
2022/04/28 05:13:05;;;;;;;10.73;6.90;;;10.20;99.90;;;;;;6269866;23;20395;-51
2022/04/28 05:15:33;;;;;;;9.57;5.40;;;10.30;99.90;;;;;;6269731;23;20399;-51
2022/04/28 05:18:00;;;;;;;10.40;5.13;;;10.40;99.90;;;;;;6270422;23;20419;-52
2022/04/28 05:20:27;;;;;;;12.47;6.50;;;10.40;99.90;;;;;;6269684;23;20422;-56
2022/04/28 05:22:53;;;;;;;10.83;6.07;;;10.50;99.90;;;;;;6269143;23;20501;-53
2022/04/28 05:25:20;;;;;;;10.80;6.23;;;10.60;99.90;;;;;;6269233;23;20419;-55
2022/04/28 05:27:47;;;;;;;10.50;5.80;;;10.70;99.90;;;;;;6269253;23;20423;-49
2022/04/28 05:30:17;;;;;;;6.70;5.50;;;10.80;99.90;;;;;;6269496;23;20394;-54
2022/04/28 05:32:45;;;;;;;9.10;5.93;;;10.90;99.90;;;;;;6269269;23;20399;-54
2022/04/28 05:35:13;;;;;;;10.27;6.03;;;11.00;99.90;;;;;;6269376;23;20442;-51
2022/04/28 05:37:40;;;;;;;9.90;6.13;;;11.10;99.90;;;;;;6269699;23;20403;-48
2022/04/28 05:40:08;;;;;;;11.73;5.57;;;11.20;99.90;;;;;;6269851;23;20429;-53
2022/04/28 05:48:07;;;;;;;10.80;5.67;;;11.60;99.90;;;;;;6270786;23;20374;-53
2022/04/28 05:50:34;;;;;;;11.33;5.80;;;11.80;99.90;;;;;;6270044;23;20431;-51
2022/04/28 05:53:02;;;;;;;9.00;4.80;;;11.90;99.90;;;;;;6269978;23;20418;-47
2022/04/28 05:55:35;;;;;;;9.13;5.43;;;12.00;99.90;;;;;;6270329;23;20467;-49
2022/04/28 05:58:02;;;;;;;12.53;5.40;;;12.10;99.90;;;;;;6270241;22;20430;-55
2022/04/28 06:00:29;;;;;;;10.00;5.60;;;12.30;99.90;;;;;;6270844;23;20425;-49
2022/04/28 06:02:57;;;;;;;16.17;5.53;;;12.30;99.90;;;;;;6270735;23;20499;-55
2022/04/28 06:05:25;;;;;;;8.93;4.73;;;12.50;99.90;;;;;;6270598;23;20403;-53
2022/04/28 06:07:52;;;;;;;9.20;5.63;;;12.50;99.90;;;;;;6269679;23;20442;-53
2022/04/28 06:10:19;;;;;;;6.77;5.37;;;12.60;99.90;;;;;;6270215;23;20407;-53
2022/04/28 06:12:46;;;;;;;9.00;5.80;;;12.60;99.90;;;;;;6269316;23;20411;-56
2022/04/28 06:15:14;;;;;;;9.77;5.13;;;12.70;99.90;;;;;;6270334;23;20387;-53
2022/04/28 06:17:46;;;;;;;7.30;5.43;;;12.70;99.90;;;;;;6269845;23;20422;-51
2022/04/28 06:20:16;;;;;;;7.73;5.10;;;12.90;99.90;;;;;;6270202;23;20398;-53
2022/04/28 06:22:48;;;;;;;8.80;5.07;;;12.90;99.90;;;;;;6270691;23;20387;-49
2022/04/28 06:25:15;;;;;;;8.03;5.47;;;12.90;99.90;;;;;;6270880;23;20391;-47
2022/04/28 06:27:42;;;;;;;11.43;6.20;;;12.90;99.90;;;;;;6270740;23;20453;-49
2022/04/28 06:30:10;;;;;;;7.03;5.37;;;12.90;99.90;;;;;;6271049;23;20442;-45
2022/04/28 06:32:38;;;;;;;8.83;5.30;;;12.90;99.90;;;;;;6270727;23;20403;-48
2022/04/28 06:35:07;;;;;;;10.30;6.23;;;12.90;99.90;;;;;;6270317;23;20421;-57
2022/04/28 06:37:36;;;;;;;12.70;7.50;;;13.00;99.90;;;;;;6269489;23;20411;-44
2022/04/28 06:40:04;;;;;;;10.10;5.30;;;13.00;99.90;;;;;;6269034;23;20418;-56
2022/04/28 06:42:31;;;;;;;10.60;7.13;;;13.00;99.90;;;;;;6270265;23;20402;-49
2022/04/28 06:44:57;;;;;;;8.40;5.80;;;13.10;99.90;;;;;;6269678;23;20438;-54
2022/04/28 06:47:24;;;;;;;11.80;7.43;;;13.10;99.90;;;;;;6269618;23;20406;-53
2022/04/28 06:49:51;;;;;;;12.43;7.30;;;13.20;99.90;;;;;;6270081;23;20399;-56
2022/04/28 06:52:18;;;;;;;9.13;5.90;;;13.30;99.90;;;;;;6269807;23;20442;-51
2022/04/28 06:54:44;;;;;;;8.97;5.83;;;13.30;99.90;;;;;;6270386;23;20418;-55
2022/04/28 06:57:13;;;;;;;12.27;7.03;;;13.30;99.90;;;;;;6270015;22;20411;-51
2022/04/28 06:59:39;;;;;;;20.97;6.03;;;13.40;99.90;;;;;;6269617;23;20675;-50
2022/04/28 07:02:08;;;;;;;11.33;7.30;;;13.50;99.90;;;;;;6269231;23;20421;-47
2022/04/28 07:04:35;;;;;;;12.10;6.30;;;13.60;99.90;;;;;;6269593;23;20434;-53
2022/04/28 07:07:02;;;;;;;13.83;7.30;;;13.70;99.90;;;;;;6269981;23;20431;-52
2022/04/28 07:09:28;;;;;;;13.33;6.80;;;13.90;99.90;;;;;;6267646;23;20403;-58
2022/04/28 07:11:58;;;;;;;14.43;6.53;;;14.00;99.90;;;;;;6269334;23;20517;-58
2022/04/28 07:14:29;;;;;;;11.13;6.30;;;14.10;99.90;;;;;;6268960;23;20447;-55
2022/04/28 07:16:56;;;;;;;10.90;6.40;;;14.10;99.90;;;;;;6269982;23;20407;-53
2022/04/28 07:19:22;;;;;;;7.90;5.87;;;14.30;99.90;;;;;;6271081;23;20486;-54
2022/04/28 07:21:49;;;;;;;11.30;5.67;;;14.40;99.90;;;;;;6271169;23;20395;-55
2022/04/28 07:24:18;;;;;;;10.97;6.30;;;14.60;99.90;;;;;;6271468;23;20415;-52
2022/04/28 07:26:45;;;;;;;11.83;6.20;;;14.80;99.90;;;;;;6272400;23;20407;-51
2022/04/28 07:29:11;;;;;;;11.03;6.43;;;15.00;99.90;;;;;;6272393;23;20453;-56
2022/04/28 07:31:39;;;;;;;8.20;6.00;;;15.20;99.90;;;;;;6272098;23;20425;-54
2022/04/28 07:34:08;;;;;;;12.33;6.10;;;15.40;99.90;;;;;;6271875;23;20403;-52
2022/04/28 07:36:35;;;;;;;8.07;5.23;;;15.50;99.50;;;;;;6271773;23;20383;-55
2022/04/28 07:39:04;;;;;;;16.00;5.80;;;15.60;99.30;;;;;;6271644;23;20415;-51
2022/04/28 07:41:31;;;;;;;8.30;5.60;;;15.80;99.70;;;;;;6272548;23;20409;-53
2022/04/28 07:43:58;;;;;;;9.33;5.20;;;16.00;98.20;;;;;;6271942;23;20491;-52
2022/04/28 07:46:24;;;;;;;11.60;5.40;;;16.20;97.20;;;;;;6271682;23;20474;-58
2022/04/28 07:48:53;;;;;;;16.10;4.90;;;16.40;96.60;;;;;;6272019;23;20492;-52
2022/04/28 07:51:22;;;;;;;14.73;5.67;;;16.70;95.80;;;;;;6272022;23;20450;-61
2022/04/28 07:53:49;;;;;;;6.80;4.77;;;17.10;94.60;;;;;;6271762;23;20411;-52
2022/04/28 07:56:18;;;;;;;7.40;5.00;;;17.50;93.10;;;;;;6272284;23;20438;-50
2022/04/28 07:58:45;;;;;;;6.80;5.03;;;18.10;91.60;;;;;;6271763;22;20443;-54
2022/04/28 08:01:13;;;;;;;9.77;5.40;;;18.50;89.40;;;;;;6272490;23;20494;-48
2022/04/28 08:03:40;;;;;;;7.17;5.37;;;18.80;87.00;;;;;;6272132;23;20466;-47
2022/04/28 08:06:11;;;;;;;10.83;5.00;;;19.40;84.50;;;;;;6272485;23;20427;-49
2022/04/28 08:08:38;;;;;;;9.73;5.27;;;20.20;79.50;;;;;;6272010;23;20417;-46
2022/04/28 08:11:04;;;;;;;11.70;5.57;;;20.80;74.20;;;;;;6272709;23;20493;-55
2022/04/28 08:13:34;;;;;;;11.93;5.77;;;20.90;71.30;;;;;;6272152;23;20422;-51
2022/04/28 08:16:01;;;;;;;14.23;8.20;;;21.30;70.20;;;;;;6272192;23;20394;-53
2022/04/28 08:18:29;;;;;;;9.43;6.10;;;21.60;68.00;;;;;;6271744;23;20427;-51
2022/04/28 08:20:56;;;;;;;9.27;5.50;;;22.00;66.80;;;;;;6272632;23;20392;-49
2022/04/28 08:23:24;;;;;;;8.23;5.80;;;22.50;62.90;;;;;;6270020;23;20410;-45
2022/04/28 08:25:52;;;;;;;9.30;5.20;;;23.20;60.50;;;;;;6270283;23;20379;-51
2022/04/28 08:28:18;;;;;;;6.70;5.20;;;24.10;58.90;;;;;;6271240;23;20409;-54
2022/04/28 08:30:45;;;;;;;9.00;5.80;;;24.60;55.90;;;;;;6271031;23;20403;-51
2022/04/28 08:33:12;;;;;;;7.70;4.40;;;25.30;53.80;;;;;;6270806;23;20457;-54
2022/04/28 08:35:39;;;;;;;6.40;5.80;;;26.00;51.80;;;;;;6271021;23;20403;-53
2022/04/28 08:38:06;;;;;;;5.77;5.17;;;26.60;49.70;;;;;;6271001;23;20399;-50
2022/04/28 08:40:34;;;;;;;7.87;5.73;;;26.70;48.30;;;;;;6270166;23;20433;-56
2022/04/28 08:43:04;;;;;;;7.87;5.73;;;26.90;47.50;;;;;;6269906;23;20411;-50
2022/04/28 08:45:38;;;;;;;7.50;5.67;;;26.80;46.70;;;;;;6270476;23;20442;-55
2022/04/28 08:48:07;;;;;;;8.93;5.20;;;26.80;46.30;;;;;;6270524;23;20461;-55
2022/04/28 08:50:34;;;;;;;5.13;4.50;;;26.70;46.20;;;;;;6262414;23;20469;-56
2022/04/28 08:53:04;;;;;;;7.40;5.10;;;26.70;46.60;;;;;;6262520;23;20423;-55
2022/04/28 08:55:31;;;;;;;9.83;6.47;;;26.70;46.30;;;;;;6262671;23;20486;-55
2022/04/28 08:57:59;;;;;;;4.93;4.37;;;27.00;45.60;;;;;;6262040;23;20481;-54
2022/04/28 09:00:26;;;;;;;7.87;4.90;;;27.10;45.10;;;;;;6261550;23;20447;-52
2022/04/28 09:02:52;;;;;;;7.60;5.53;;;27.30;44.10;;;;;;6261542;23;20403;-55
2022/04/28 09:05:20;;;;;;;11.10;5.33;;;27.40;44.20;;;;;;6260444;23;20447;-55
2022/04/28 09:07:48;;;;;;;6.97;5.40;;;27.50;43.60;;;;;;6261713;23;20427;-55
2022/04/28 09:10:31;;;;;;;6.60;4.60;;;27.30;42.90;;;;;;6261654;23;20426;-53
2022/04/28 09:14:09;;;;;;;6.27;4.83;;;26.00;43.60;;;;;;6264262;23;20398;-54
2022/04/28 09:15:50;;;;;;;11.97;5.93;;;25.40;45.60;;;;;;6265593;23;20474;-51
2022/04/28 09:18:18;;;;;;;6.87;5.60;;;25.60;45.90;;;;;;6264635;23;20417;-52
2022/04/28 09:20:46;;;;;;;7.03;5.40;;;26.00;44.50;;;;;;6264566;23;20959;-55
2022/04/28 09:23:13;;;;;;;7.97;4.87;;;26.70;44.00;;;;;;6265248;23;20407;-48
2022/04/28 09:25:43;;;;;;;9.10;5.83;;;27.00;43.80;;;;;;6263756;23;20435;-54
2022/04/28 09:28:12;;;;;;;6.00;5.30;;;27.50;42.70;;;;;;6263052;23;20498;-51
2022/04/28 09:30:43;;;;;;;6.20;5.13;;;27.60;41.60;;;;;;6261548;23;20434;-52
2022/04/28 09:33:11;;;;;;;5.43;4.00;;;26.50;42.30;;;;;;6261828;23;20400;-50
2022/04/28 09:35:45;;;;;;;6.80;4.23;;;25.80;43.60;;;;;;6263918;23;20424;-51
2022/04/28 09:38:12;;;;;;;6.97;6.07;;;25.90;44.50;;;;;;6263455;23;20948;-49
2022/04/28 09:43:25;;;;;;;6.67;5.17;;;25.60;42.70;;;;;;6253708;23;20410;-50
2022/04/28 09:45:51;;;;;;;8.83;6.17;;;25.40;42.80;;;;;;6264649;23;20453;-46
2022/04/28 09:48:20;;;;;;;7.80;5.73;;;25.40;43.30;;;;;;6270866;23;20394;-50
2022/04/28 09:50:47;;;;;;;8.70;5.50;;;25.50;43.10;;;;;;6271482;23;20460;-50
2022/04/28 09:53:15;;;;;;;7.90;4.70;;;25.10;42.50;;;;;;6271819;23;20402;-51
2022/04/28 09:55:45;;;;;;;4.57;4.03;;;24.40;43.60;;;;;;6270269;23;20498;-47
2022/04/28 09:58:14;;;;;;;7.47;4.88;;;24.20;45.10;;;;;;6271473;22;20369;-48
2022/04/28 10:00:43;;;;;;;8.70;5.90;;;24.70;44.40;;;;;;6269170;23;20203;-51
2022/04/28 10:03:11;;;;;;;5.67;4.70;;;25.20;43.60;;;;;;6270750;23;20415;-52
2022/04/28 10:05:40;;;;;;;10.73;6.27;;;25.10;43.80;;;;;;6269623;23;20422;-54
2022/04/28 10:08:08;;;;;;;6.60;5.13;;;24.50;44.50;;;;;;6270343;23;20430;-49
2022/04/28 10:10:36;;;;;;;5.90;4.77;;;24.00;45.60;;;;;;6270539;23;20475;-52
2022/04/28 10:13:03;;;;;;;6.97;4.17;;;23.50;46.10;;;;;;6271002;23;20427;-52
2022/04/28 10:15:33;;;;;;;10.93;4.77;;;23.10;45.90;;;;;;6271001;23;20401;-51
2022/04/28 10:18:08;;;;;;;10.80;5.07;;;22.30;46.20;;;;;;6271760;23;20391;-54
2022/04/28 10:20:42;;;;;;;7.13;5.10;;;21.90;47.10;;;;;;6270418;23;20394;-54
2022/04/28 10:23:10;;;;;;;9.73;5.03;;;22.50;48.20;;;;;;6270772;23;20427;-54
2022/04/28 10:34:14;;;;;;;7.20;5.00;;;22.30;48.50;;;;;;6272036;23;20383;-51
2022/04/28 10:36:53;;;;;;;13.17;4.53;;;21.30;49.10;;;;;;6271133;23;20387;-52
2022/04/28 10:39:38;;;;;;;6.40;3.97;;;21.10;50.50;;;;;;6270865;23;20383;-53
2022/04/28 10:42:13;;;;;;;5.53;4.63;;;21.50;50.80;;;;;;6270866;23;20395;-52
2022/04/28 10:44:42;;;;;;;5.37;4.40;;;21.90;50.00;;;;;;6270656;23;20453;-54
2022/04/28 10:47:09;;;;;;;9.07;4.37;;;22.10;47.80;;;;;;6270354;23;20484;-52
2022/04/28 10:49:40;;;;;;;8.80;4.20;;;22.20;47.70;;;;;;6271061;23;20391;-53
2022/04/28 10:52:20;;;;;;;7.40;4.80;;;22.60;48.40;;;;;;6271447;23;20413;-50
2022/04/28 10:54:51;;;;;;;7.83;4.80;;;22.70;47.10;;;;;;6272683;23;20396;-53
2022/04/28 10:57:18;;;;;;;8.13;4.67;;;22.70;48.00;;;;;;6272771;22;20417;-52
2022/04/28 10:59:52;;;;;;;13.07;5.27;;;22.50;47.30;;;;;;6273077;23;20415;-49
2022/04/28 11:02:43;;;;;;;7.73;4.60;;;22.10;48.50;;;;;;6273203;23;20376;-50
2022/04/28 11:05:43;;;;;;;10.13;4.97;;;21.70;49.50;;;;;;6274245;23;20431;-49
2022/04/28 11:08:32;;;;;;;7.70;4.70;;;21.50;48.50;;;;;;6273158;23;20419;-52
2022/04/28 11:11:19;;;;;;;5.30;4.33;;;21.50;48.60;;;;;;6274242;23;20383;-48
2022/04/28 11:13:50;;;;;;;7.00;4.10;;;21.50;47.50;;;;;;6273722;23;20498;-50
2022/04/28 11:16:22;;;;;;;8.20;4.23;;;21.60;48.00;;;;;;6273082;23;20379;-53
2022/04/28 11:18:49;;;;;;;6.30;4.60;;;21.30;47.30;;;;;;6272665;23;20495;-53
2022/04/28 11:21:19;;;;;;;9.27;4.13;;;21.30;47.70;;;;;;6272965;23;20399;-52
2022/04/28 11:23:47;;;;;;;5.70;4.10;;;21.50;48.90;;;;;;6272758;23;20466;-53
2022/04/28 11:26:19;;;;;;;8.50;5.10;;;21.70;48.00;;;;;;6272715;23;20446;-51
2022/04/28 11:28:46;;;;;;;5.80;3.90;;;21.70;48.10;;;;;;6271873;23;20437;-52
2022/04/28 11:31:15;;;;;;;7.40;3.90;;;21.50;48.40;;;;;;6272613;23;20391;-57
2022/04/28 11:33:43;;;;;;;9.23;4.30;;;21.40;49.00;;;;;;6272177;23;20487;-55
2022/04/28 11:36:32;;;;;;;5.77;3.73;;;21.30;48.10;;;;;;6272388;23;20747;-51
2022/04/28 11:39:02;;;;;;;6.80;5.03;;;21.30;48.70;;;;;;6261327;23;20782;-54
2022/04/28 11:41:34;;;;;;;12.60;4.17;;;21.30;49.60;;;;;;6272490;23;20425;-55
2022/04/28 11:44:05;;;;;;;4.53;3.87;;;21.20;49.30;;;;;;6272459;23;20410;-54
2022/04/28 11:46:31;;;;;;;6.73;4.20;;;21.20;49.40;;;;;;6272217;23;20423;-57
2022/04/28 11:49:01;;;;;;;12.10;4.73;;;21.20;49.30;;;;;;6271477;23;20406;-55
2022/04/28 11:51:33;;;;;;;6.73;4.13;;;21.20;49.90;;;;;;6271676;23;20418;-59
2022/04/28 11:54:01;;;;;;;6.07;4.10;;;21.20;49.50;;;;;;6271826;23;20423;-57
2022/04/28 11:56:31;;;;;;;7.07;4.13;;;21.30;49.80;;;;;;6271762;23;20391;-48
2022/04/28 11:58:59;;;;;;;5.67;4.30;;;21.30;50.10;;;;;;6271947;23;20415;-54
2022/04/28 12:01:30;;;;;;;4.93;4.20;;;21.30;49.20;;;;;;6272485;23;20411;-52
2022/04/28 12:03:58;;;;;;;7.73;3.97;;;21.30;49.70;;;;;;6271673;23;20384;-53
2022/04/28 12:06:26;;;;;;;6.40;3.90;;;21.20;50.30;;;;;;6271558;23;20423;-48
2022/04/28 12:08:55;;;;;;;5.50;4.53;;;21.10;49.40;;;;;;6272393;23;20441;-51
2022/04/28 12:14:23;;;;;;;4.90;3.90;;;21.00;49.60;;;;;;6273027;23;20395;-48
2022/04/28 12:19:47;;;;;;;5.33;4.40;;;20.50;49.20;;;;;;6272844;23;20806;-48
2022/04/28 12:22:14;;;;;;;6.93;4.47;;;20.50;49.70;;;;;;6272229;22;20433;-51
2022/04/28 12:24:43;;;;;;;9.07;4.00;;;20.50;49.60;;;;;;6272277;23;20438;-48
2022/04/28 12:27:12;;;;;;;13.43;4.67;;;20.40;48.60;;;;;;6271320;23;20434;-52
2022/04/28 12:29:52;;;;;;;5.40;4.17;;;20.30;49.40;;;;;;6271979;23;20395;-48
2022/04/28 12:32:19;;;;;;;4.83;3.10;;;20.20;49.30;;;;;;6271754;23;20423;-48
2022/04/28 12:34:56;;;;;;;6.17;5.07;;;20.10;49.80;;;;;;6272568;23;20387;-54
2022/04/28 12:37:25;;;;;;;5.03;4.33;;;19.90;49.80;;;;;;6272132;23;20387;-48
2022/04/28 12:39:55;;;;;;;4.43;3.50;;;20.00;50.90;;;;;;6271805;23;20383;-51
2022/04/28 12:42:25;;;;;;;6.00;2.93;;;20.10;49.60;;;;;;6271898;23;20410;-51
2022/04/28 12:44:53;;;;;;;4.13;3.30;;;20.20;49.00;;;;;;6271855;23;20483;-49
2022/04/28 12:47:20;;;;;;;5.30;4.20;;;20.30;49.60;;;;;;6265975;23;20415;-46
2022/04/28 12:49:48;;;;;;;5.60;3.33;;;20.40;48.80;;;;;;6271013;23;20419;-47
2022/04/28 12:52:33;;;;;;;3.93;3.53;;;20.30;49.50;;;;;;6271381;23;20474;-48
2022/04/28 12:55:04;;;;;;;5.50;3.33;;;20.50;50.30;;;;;;6269176;23;20446;-48
2022/04/28 12:57:33;;;;;;;5.53;3.93;;;20.60;49.30;;;;;;6271117;22;20403;-47
2022/04/28 13:00:04;;;;;;;6.40;3.53;;;20.90;49.20;;;;;;6271402;23;20463;-51
2022/04/28 13:02:32;;;;;;;5.23;3.33;;;21.10;50.00;;;;;;6271361;23;20379;-47
2022/04/28 13:05:12;;;;;;;4.40;2.80;;;21.20;48.30;;;;;;6271061;23;20443;-53
2022/04/28 13:07:39;;;;;;;3.63;2.90;;;21.40;47.90;;;;;;6271948;23;20417;-54
2022/04/28 13:10:07;;;;;;;5.70;3.37;;;21.40;48.30;;;;;;6271680;23;20410;-47
2022/04/28 13:12:37;;;;;;;7.53;3.57;;;21.60;48.80;;;;;;6270765;23;20414;-47
2022/04/28 13:15:05;;;;;;;4.07;2.40;;;21.60;46.80;;;;;;6271148;23;20404;-51
2022/04/28 13:17:32;;;;;;;6.40;3.30;;;21.40;47.30;;;;;;6271474;23;20458;-50
2022/04/28 13:19:59;;;;;;;5.27;3.80;;;21.10;46.70;;;;;;6271547;23;20395;-53
2022/04/28 13:22:26;;;;;;;5.10;3.33;;;21.00;46.80;;;;;;6270872;23;20407;-47
2022/04/28 13:24:54;;;;;;;4.73;3.90;;;21.00;47.60;;;;;;6271002;22;20438;-48
2022/04/28 13:27:21;;;;;;;5.50;3.70;;;21.00;48.40;;;;;;6271047;23;20407;-43
2022/04/28 13:29:49;;;;;;;4.77;4.27;;;21.00;48.60;;;;;;6270937;23;20480;-48
2022/04/28 13:32:17;;;;;;;5.13;4.20;;;20.80;48.20;;;;;;6270861;23;20404;-49